sensor_id;sensor_type;location;lat;lon;timestamp;pressure;altitude;pressure_sealevel;temperature;humidity
3142;BME280;1581;51.568;6.998;2022-08-19T00:01:35;100634.66;;;20.62;100.00
3142;BME280;1581;51.568;6.998;2022-08-19T00:04:08;100633.03;;;20.61;100.00
3142;BME280;1581;51.568;6.998;2022-08-19T00:06:37;100630.03;;;20.58;100.00
3142;BME280;1581;51.568;6.998;2022-08-19T00:09:09;100629.16;;;20.52;100.00
3142;BME280;1581;51.568;6.998;2022-08-19T00:11:39;100629.94;;;20.53;100.00
3142;BME280;1581;51.568;6.998;2022-08-19T00:14:08;100629.91;;;20.48;100.00
3142;BME280;1581;51.568;6.998;2022-08-19T00:16:37;100630.69;;;20.43;100.00
3142;BME280;1581;51.568;6.998;2022-08-19T00:19:06;100634.50;;;20.47;100.00
3142;BME280;1581;51.568;6.998;2022-08-19T00:21:35;100640.19;;;20.46;100.00
3142;BME280;1581;51.568;6.998;2022-08-19T00:24:06;100636.69;;;20.50;100.00
3142;BME280;1581;51.568;6.998;2022-08-19T00:26:35;100632.56;;;20.43;100.00
3142;BME280;1581;51.568;6.998;2022-08-19T00:29:06;100634.41;;;20.37;100.00
3142;BME280;1581;51.568;6.998;2022-08-19T00:31:34;100636.59;;;20.40;100.00
3142;BME280;1581;51.568;6.998;2022-08-19T00:34:02;100633.13;;;20.45;100.00
3142;BME280;1581;51.568;6.998;2022-08-19T00:36:30;100631.44;;;20.39;100.00
3142;BME280;1581;51.568;6.998;2022-08-19T00:38:58;100624.28;;;20.28;100.00
3142;BME280;1581;51.568;6.998;2022-08-19T00:41:27;100625.94;;;20.29;100.00
3142;BME280;1581;51.568;6.998;2022-08-19T00:44:00;100624.47;;;20.21;100.00
3142;BME280;1581;51.568;6.998;2022-08-19T00:46:31;100632.03;;;20.19;100.00
3142;BME280;1581;51.568;6.998;2022-08-19T00:49:00;100622.28;;;20.18;100.00
3142;BME280;1581;51.568;6.998;2022-08-19T00:51:31;100627.19;;;20.21;100.00
3142;BME280;1581;51.568;6.998;2022-08-19T00:53:59;100622.03;;;20.20;100.00
3142;BME280;1581;51.568;6.998;2022-08-19T00:56:28;100623.59;;;20.16;100.00
3142;BME280;1581;51.568;6.998;2022-08-19T00:58:58;100623.03;;;20.14;100.00
3142;BME280;1581;51.568;6.998;2022-08-19T01:01:28;100620.34;;;20.14;100.00
3142;BME280;1581;51.568;6.998;2022-08-19T01:03:57;100616.06;;;20.18;100.00
3142;BME280;1581;51.568;6.998;2022-08-19T01:06:25;100619.16;;;20.05;100.00
3142;BME280;1581;51.568;6.998;2022-08-19T01:08:53;100608.31;;;20.05;100.00
3142;BME280;1581;51.568;6.998;2022-08-19T01:11:21;100614.75;;;19.99;100.00
3142;BME280;1581;51.568;6.998;2022-08-19T01:13:51;100607.22;;;20.01;100.00
3142;BME280;1581;51.568;6.998;2022-08-19T01:16:22;100614.75;;;19.99;100.00
3142;BME280;1581;51.568;6.998;2022-08-19T01:18:51;100615.56;;;19.99;100.00
3142;BME280;1581;51.568;6.998;2022-08-19T01:21:25;100606.94;;;20.02;100.00
3142;BME280;1581;51.568;6.998;2022-08-19T01:23:57;100614.22;;;20.02;100.00
3142;BME280;1581;51.568;6.998;2022-08-19T01:26:26;100621.28;;;20.03;100.00
3142;BME280;1581;51.568;6.998;2022-08-19T01:28:57;100617.47;;;19.99;100.00
3142;BME280;1581;51.568;6.998;2022-08-19T01:31:28;100625.38;;;20.05;100.00
3142;BME280;1581;51.568;6.998;2022-08-19T01:33:57;100617.78;;;20.02;100.00
3142;BME280;1581;51.568;6.998;2022-08-19T01:36:29;100619.63;;;20.02;100.00
3142;BME280;1581;51.568;6.998;2022-08-19T01:38:59;100615.72;;;19.93;100.00
3142;BME280;1581;51.568;6.998;2022-08-19T01:41:27;100621.13;;;19.93;100.00
3142;BME280;1581;51.568;6.998;2022-08-19T01:43:54;100615.97;;;19.91;100.00
3142;BME280;1581;51.568;6.998;2022-08-19T01:46:22;100614.06;;;19.92;100.00
3142;BME280;1581;51.568;6.998;2022-08-19T01:48:50;100610.31;;;19.93;100.00
3142;BME280;1581;51.568;6.998;2022-08-19T01:51:18;100616.28;;;19.95;100.00
3142;BME280;1581;51.568;6.998;2022-08-19T01:53:48;100618.53;;;19.98;100.00
3142;BME280;1581;51.568;6.998;2022-08-19T01:56:20;100617.16;;;19.95;100.00
3142;BME280;1581;51.568;6.998;2022-08-19T01:58:52;100619.00;;;19.95;100.00
3142;BME280;1581;51.568;6.998;2022-08-19T02:01:21;100621.47;;;19.96;100.00
3142;BME280;1581;51.568;6.998;2022-08-19T02:03:49;100623.59;;;19.94;100.00
3142;BME280;1581;51.568;6.998;2022-08-19T02:06:17;100618.88;;;19.85;100.00
3142;BME280;1581;51.568;6.998;2022-08-19T02:08:45;100620.50;;;19.86;100.00
3142;BME280;1581;51.568;6.998;2022-08-19T02:11:22;100615.34;;;19.85;100.00
3142;BME280;1581;51.568;6.998;2022-08-19T02:13:50;100619.13;;;19.84;100.00
3142;BME280;1581;51.568;6.998;2022-08-19T02:16:18;100616.66;;;19.82;100.00
3142;BME280;1581;51.568;6.998;2022-08-19T02:18:46;100601.72;;;19.75;100.00
3142;BME280;1581;51.568;6.998;2022-08-19T02:21:14;100595.41;;;19.69;100.00
3142;BME280;1581;51.568;6.998;2022-08-19T02:23:42;100603.53;;;19.69;100.00
3142;BME280;1581;51.568;6.998;2022-08-19T02:26:10;100608.19;;;19.74;100.00
3142;BME280;1581;51.568;6.998;2022-08-19T02:28:40;100611.19;;;19.77;100.00
3142;BME280;1581;51.568;6.998;2022-08-19T02:31:10;100608.75;;;19.76;100.00
3142;BME280;1581;51.568;6.998;2022-08-19T02:33:38;100612.22;;;19.71;100.00
3142;BME280;1581;51.568;6.998;2022-08-19T02:36:07;100615.41;;;19.68;100.00
3142;BME280;1581;51.568;6.998;2022-08-19T02:38:47;100625.66;;;19.66;100.00
3142;BME280;1581;51.568;6.998;2022-08-19T02:41:18;100626.47;;;19.67;100.00
3142;BME280;1581;51.568;6.998;2022-08-19T02:43:47;100627.28;;;19.67;100.00
3142;BME280;1581;51.568;6.998;2022-08-19T02:46:18;100621.94;;;19.72;100.00
3142;BME280;1581;51.568;6.998;2022-08-19T02:48:47;100618.59;;;19.65;100.00
3142;BME280;1581;51.568;6.998;2022-08-19T02:51:22;100630.59;;;19.53;100.00
3142;BME280;1581;51.568;6.998;2022-08-19T02:53:50;100612.09;;;19.61;100.00
3142;BME280;1581;51.568;6.998;2022-08-19T02:56:19;100616.91;;;19.59;100.00
3142;BME280;1581;51.568;6.998;2022-08-19T02:58:48;100612.50;;;19.53;100.00
3142;BME280;1581;51.568;6.998;2022-08-19T03:01:23;100617.41;;;19.56;100.00
3142;BME280;1581;51.568;6.998;2022-08-19T03:03:52;100626.09;;;19.58;100.00
3142;BME280;1581;51.568;6.998;2022-08-19T03:06:20;100618.47;;;19.55;100.00
3142;BME280;1581;51.568;6.998;2022-08-19T03:08:48;100621.25;;;19.60;100.00
3142;BME280;1581;51.568;6.998;2022-08-19T03:11:18;100614.97;;;19.55;100.00
3142;BME280;1581;51.568;6.998;2022-08-19T03:13:48;100627.06;;;19.52;100.00
3142;BME280;1581;51.568;6.998;2022-08-19T03:16:17;100618.63;;;19.49;100.00
3142;BME280;1581;51.568;6.998;2022-08-19T03:18:45;100622.94;;;19.45;100.00
3142;BME280;1581;51.568;6.998;2022-08-19T03:21:16;100616.94;;;19.43;100.00
3142;BME280;1581;51.568;6.998;2022-08-19T03:23:43;100613.97;;;19.44;100.00
3142;BME280;1581;51.568;6.998;2022-08-19T03:26:11;100611.72;;;19.36;100.00
3142;BME280;1581;51.568;6.998;2022-08-19T03:28:42;100615.56;;;19.40;100.00
3142;BME280;1581;51.568;6.998;2022-08-19T03:31:14;100617.44;;;19.40;100.00
3142;BME280;1581;51.568;6.998;2022-08-19T03:33:42;100611.44;;;19.38;100.00
3142;BME280;1581;51.568;6.998;2022-08-19T03:36:13;100611.44;;;19.38;100.00
3142;BME280;1581;51.568;6.998;2022-08-19T03:38:44;100620.97;;;19.40;100.00
3142;BME280;1581;51.568;6.998;2022-08-19T03:41:15;100612.72;;;19.30;100.00
3142;BME280;1581;51.568;6.998;2022-08-19T03:43:44;100613.78;;;19.29;100.00
3142;BME280;1581;51.568;6.998;2022-08-19T03:46:19;100616.72;;;19.28;100.00
3142;BME280;1581;51.568;6.998;2022-08-19T03:48:48;100625.38;;;19.30;100.00
3142;BME280;1581;51.568;6.998;2022-08-19T03:51:23;100620.72;;;19.25;100.00
3142;BME280;1581;51.568;6.998;2022-08-19T03:53:53;100625.56;;;19.23;100.00
3142;BME280;1581;51.568;6.998;2022-08-19T03:56:21;100620.31;;;19.01;100.00
3142;BME280;1581;51.568;6.998;2022-08-19T03:58:52;100615.50;;;19.19;100.00
3142;BME280;1581;51.568;6.998;2022-08-19T04:01:24;100618.50;;;19.22;100.00
3142;BME280;1581;51.568;6.998;2022-08-19T04:03:53;100616.41;;;19.24;100.00
3142;BME280;1581;51.568;6.998;2022-08-19T04:06:26;100616.41;;;19.24;100.00
3142;BME280;1581;51.568;6.998;2022-08-19T04:08:56;100626.97;;;19.26;100.00
3142;BME280;1581;51.568;6.998;2022-08-19T04:11:27;100629.09;;;19.24;100.00
3142;BME280;1581;51.568;6.998;2022-08-19T04:13:55;100631.38;;;19.32;100.00
3142;BME280;1581;51.568;6.998;2022-08-19T04:16:27;100627.34;;;19.34;100.00
3142;BME280;1581;51.568;6.998;2022-08-19T04:18:56;100620.00;;;19.30;100.00
3142;BME280;1581;51.568;6.998;2022-08-19T04:21:27;100623.69;;;19.24;100.00
3142;BME280;1581;51.568;6.998;2022-08-19T04:23:55;100620.41;;;19.22;100.00
3142;BME280;1581;51.568;6.998;2022-08-19T04:26:26;100614.91;;;19.17;100.00
3142;BME280;1581;51.568;6.998;2022-08-19T04:28:56;100622.47;;;19.15;100.00
3142;BME280;1581;51.568;6.998;2022-08-19T04:31:27;100625.50;;;19.18;100.00
3142;BME280;1581;51.568;6.998;2022-08-19T04:33:57;100623.59;;;19.19;100.00
3142;BME280;1581;51.568;6.998;2022-08-19T04:36:29;100626.47;;;19.12;100.00
3142;BME280;1581;51.568;6.998;2022-08-19T04:39:04;100621.47;;;19.21;100.00
3142;BME280;1581;51.568;6.998;2022-08-19T04:41:33;100623.84;;;19.17;100.00
3142;BME280;1581;51.568;6.998;2022-08-19T04:44:18;100628.09;;;19.13;100.00
3142;BME280;1581;51.568;6.998;2022-08-19T04:46:49;100635.28;;;19.08;100.00
3142;BME280;1581;51.568;6.998;2022-08-19T04:49:20;100635.84;;;19.10;100.00
3142;BME280;1581;51.568;6.998;2022-08-19T04:51:50;100641.94;;;19.17;100.00
3142;BME280;1581;51.568;6.998;2022-08-19T04:54:19;100647.44;;;19.22;100.00
3142;BME280;1581;51.568;6.998;2022-08-19T04:56:48;100635.66;;;19.11;100.00
3142;BME280;1581;51.568;6.998;2022-08-19T04:59:19;100638.84;;;19.25;100.00
3142;BME280;1581;51.568;6.998;2022-08-19T05:01:48;100638.09;;;19.29;100.00
3142;BME280;1581;51.568;6.998;2022-08-19T05:04:19;100641.38;;;19.31;100.00
3142;BME280;1581;51.568;6.998;2022-08-19T05:06:48;100646.13;;;19.24;100.00
3142;BME280;1581;51.568;6.998;2022-08-19T05:09:16;100651.34;;;19.31;100.00
3142;BME280;1581;51.568;6.998;2022-08-19T05:11:44;100658.88;;;19.29;100.00
3142;BME280;1581;51.568;6.998;2022-08-19T05:14:12;100659.56;;;19.36;100.00
3142;BME280;1581;51.568;6.998;2022-08-19T05:16:40;100663.38;;;19.40;100.00
3142;BME280;1581;51.568;6.998;2022-08-19T05:19:18;100669.84;;;19.39;100.00
3142;BME280;1581;51.568;6.998;2022-08-19T05:22:03;100671.16;;;19.53;100.00
3142;BME280;1581;51.568;6.998;2022-08-19T05:24:48;100667.69;;;19.57;100.00
3142;BME280;1581;51.568;6.998;2022-08-19T05:27:16;100668.91;;;19.66;100.00
3142;BME280;1581;51.568;6.998;2022-08-19T05:29:43;100674.47;;;19.76;100.00
3142;BME280;1581;51.568;6.998;2022-08-19T05:32:11;100677.56;;;19.85;100.00
3142;BME280;1581;51.568;6.998;2022-08-19T05:34:40;100684.78;;;19.95;100.00
3142;BME280;1581;51.568;6.998;2022-08-19T05:37:08;100672.75;;;20.08;100.00
3142;BME280;1581;51.568;6.998;2022-08-19T05:39:37;100672.88;;;20.18;100.00
3142;BME280;1581;51.568;6.998;2022-08-19T05:42:08;100677.38;;;20.34;100.00
3142;BME280;1581;51.568;6.998;2022-08-19T05:44:38;100674.81;;;20.44;100.00
3142;BME280;1581;51.568;6.998;2022-08-19T05:47:09;100680.53;;;20.47;100.00
3142;BME280;1581;51.568;6.998;2022-08-19T05:49:41;100677.94;;;20.57;100.00
3142;BME280;1581;51.568;6.998;2022-08-19T05:52:13;100674.97;;;20.59;100.00
3142;BME280;1581;51.568;6.998;2022-08-19T05:54:42;100676.63;;;20.60;100.00
3142;BME280;1581;51.568;6.998;2022-08-19T05:57:14;100682.03;;;20.60;100.00
3142;BME280;1581;51.568;6.998;2022-08-19T05:59:42;100688.31;;;20.65;100.00
3142;BME280;1581;51.568;6.998;2022-08-19T06:02:12;100682.69;;;20.72;100.00
3142;BME280;1581;51.568;6.998;2022-08-19T06:04:41;100678.50;;;20.81;100.00
3142;BME280;1581;51.568;6.998;2022-08-19T06:07:09;100689.31;;;20.81;100.00
3142;BME280;1581;51.568;6.998;2022-08-19T06:09:37;100680.53;;;20.74;100.00
3142;BME280;1581;51.568;6.998;2022-08-19T06:12:05;100675.53;;;20.82;100.00
3142;BME280;1581;51.568;6.998;2022-08-19T06:14:35;100684.59;;;20.97;100.00
3142;BME280;1581;51.568;6.998;2022-08-19T06:17:03;100678.34;;;20.97;100.00
3142;BME280;1581;51.568;6.998;2022-08-19T06:19:31;100679.47;;;20.96;100.00
3142;BME280;1581;51.568;6.998;2022-08-19T06:22:01;100679.69;;;20.94;100.00
3142;BME280;1581;51.568;6.998;2022-08-19T06:24:31;100671.06;;;20.97;100.00
3142;BME280;1581;51.568;6.998;2022-08-19T06:27:00;100672.06;;;20.91;100.00
3142;BME280;1581;51.568;6.998;2022-08-19T06:29:29;100682.91;;;20.91;100.00
3142;BME280;1581;51.568;6.998;2022-08-19T06:32:00;100677.56;;;21.01;100.00
3142;BME280;1581;51.568;6.998;2022-08-19T06:34:31;100677.31;;;20.77;100.00
3142;BME280;1581;51.568;6.998;2022-08-19T06:37:01;100681.63;;;20.99;100.00
3142;BME280;1581;51.568;6.998;2022-08-19T06:39:34;100677.91;;;21.05;100.00
3142;BME280;1581;51.568;6.998;2022-08-19T06:42:04;100673.84;;;21.07;100.00
3142;BME280;1581;51.568;6.998;2022-08-19T06:44:36;100681.22;;;21.12;100.00
3142;BME280;1581;51.568;6.998;2022-08-19T06:47:07;100681.47;;;21.10;100.00
3142;BME280;1581;51.568;6.998;2022-08-19T06:49:36;100674.44;;;21.14;100.00
3142;BME280;1581;51.568;6.998;2022-08-19T06:52:06;100669.09;;;21.24;100.00
3142;BME280;1581;51.568;6.998;2022-08-19T06:54:33;100673.44;;;21.25;100.00
3142;BME280;1581;51.568;6.998;2022-08-19T06:57:02;100676.16;;;21.25;100.00
3142;BME280;1581;51.568;6.998;2022-08-19T06:59:37;100680.53;;;21.31;100.00
3142;BME280;1581;51.568;6.998;2022-08-19T07:02:13;100679.59;;;21.47;100.00
3142;BME280;1581;51.568;6.998;2022-08-19T07:04:41;100682.03;;;21.49;100.00
3142;BME280;1581;51.568;6.998;2022-08-19T07:07:13;100684.63;;;21.65;100.00
3142;BME280;1581;51.568;6.998;2022-08-19T07:09:43;100675.69;;;21.69;100.00
3142;BME280;1581;51.568;6.998;2022-08-19T07:12:13;100673.53;;;21.71;100.00
3142;BME280;1581;51.568;6.998;2022-08-19T07:14:42;100677.38;;;21.75;100.00
3142;BME280;1581;51.568;6.998;2022-08-19T07:17:12;100684.50;;;21.91;100.00
3142;BME280;1581;51.568;6.998;2022-08-19T07:19:41;100681.84;;;22.06;100.00
3142;BME280;1581;51.568;6.998;2022-08-19T07:22:11;100689.75;;;22.08;100.00
3142;BME280;1581;51.568;6.998;2022-08-19T07:24:39;100686.81;;;22.19;100.00
3142;BME280;1581;51.568;6.998;2022-08-19T07:27:07;100695.28;;;22.28;100.00
3142;BME280;1581;51.568;6.998;2022-08-19T07:29:36;100698.50;;;22.25;100.00
3142;BME280;1581;51.568;6.998;2022-08-19T07:32:05;100702.56;;;22.27;100.00
3142;BME280;1581;51.568;6.998;2022-08-19T07:34:34;100686.34;;;22.37;100.00
3142;BME280;1581;51.568;6.998;2022-08-19T07:37:04;100701.31;;;22.45;100.00
3142;BME280;1581;51.568;6.998;2022-08-19T07:39:35;100707.56;;;22.35;100.00
3142;BME280;1581;51.568;6.998;2022-08-19T07:42:07;100711.56;;;22.28;100.00
3142;BME280;1581;51.568;6.998;2022-08-19T07:44:36;100713.25;;;22.39;100.00
3142;BME280;1581;51.568;6.998;2022-08-19T07:47:05;100727.97;;;22.48;100.00
3142;BME280;1581;51.568;6.998;2022-08-19T07:49:34;100725.53;;;22.51;100.00
3142;BME280;1581;51.568;6.998;2022-08-19T07:52:07;100727.97;;;22.53;100.00
3142;BME280;1581;51.568;6.998;2022-08-19T07:54:38;100729.66;;;22.68;100.00
3142;BME280;1581;51.568;6.998;2022-08-19T07:57:07;100723.69;;;22.81;100.00
3142;BME280;1581;51.568;6.998;2022-08-19T07:59:35;100730.53;;;22.84;100.00
3142;BME280;1581;51.568;6.998;2022-08-19T08:02:03;100735.16;;;22.88;100.00
3142;BME280;1581;51.568;6.998;2022-08-19T08:04:31;100739.56;;;23.09;100.00
3142;BME280;1581;51.568;6.998;2022-08-19T08:07:16;100748.00;;;23.18;100.00
3142;BME280;1581;51.568;6.998;2022-08-19T08:10:05;100751.53;;;23.33;100.00
3142;BME280;1581;51.568;6.998;2022-08-19T08:12:36;100753.47;;;23.43;100.00
3142;BME280;1581;51.568;6.998;2022-08-19T08:15:12;100755.34;;;23.42;100.00
3142;BME280;1581;51.568;6.998;2022-08-19T08:17:43;100751.28;;;23.64;100.00
3142;BME280;1581;51.568;6.998;2022-08-19T08:20:12;100757.25;;;23.76;100.00
3142;BME280;1581;51.568;6.998;2022-08-19T08:22:44;100758.63;;;23.79;100.00
3142;BME280;1581;51.568;6.998;2022-08-19T08:25:31;100767.31;;;23.96;100.00
3142;BME280;1581;51.568;6.998;2022-08-19T08:27:59;100758.91;;;23.82;100.00
3142;BME280;1581;51.568;6.998;2022-08-19T08:30:28;100762.97;;;23.90;100.00
3142;BME280;1581;51.568;6.998;2022-08-19T08:32:56;100757.81;;;23.78;100.00
3142;BME280;1581;51.568;6.998;2022-08-19T08:35:24;100762.94;;;24.05;100.00
3142;BME280;1581;51.568;6.998;2022-08-19T08:37:54;100760.72;;;24.12;100.00
3142;BME280;1581;51.568;6.998;2022-08-19T08:40:28;100766.72;;;24.19;100.00
3142;BME280;1581;51.568;6.998;2022-08-19T08:43:01;100766.72;;;24.14;100.00
3142;BME280;1581;51.568;6.998;2022-08-19T08:45:32;100769.44;;;24.19;100.00
3142;BME280;1581;51.568;6.998;2022-08-19T08:48:13;100762.56;;;24.36;100.00
3142;BME280;1581;51.568;6.998;2022-08-19T08:50:46;100773.19;;;24.33;100.00
3142;BME280;1581;51.568;6.998;2022-08-19T08:53:20;100767.22;;;24.35;100.00
3142;BME280;1581;51.568;6.998;2022-08-19T08:55:48;100775.41;;;24.31;100.00
3142;BME280;1581;51.568;6.998;2022-08-19T08:58:26;100772.66;;;24.35;100.00
3142;BME280;1581;51.568;6.998;2022-08-19T09:00:55;100775.59;;;24.59;100.00
3142;BME280;1581;51.568;6.998;2022-08-19T09:03:25;100769.53;;;24.72;100.00
3142;BME280;1581;51.568;6.998;2022-08-19T09:06:01;100767.50;;;24.97;100.00
3142;BME280;1581;51.568;6.998;2022-08-19T09:08:42;100783.25;;;25.05;100.00
3142;BME280;1581;51.568;6.998;2022-08-19T09:11:19;100777.94;;;25.28;100.00
3142;BME280;1581;51.568;6.998;2022-08-19T09:14:07;100782.88;;;25.26;100.00
3142;BME280;1581;51.568;6.998;2022-08-19T09:16:36;100768.53;;;25.01;100.00
3142;BME280;1581;51.568;6.998;2022-08-19T09:19:08;100780.72;;;25.24;100.00
3142;BME280;1581;51.568;6.998;2022-08-19T09:21:37;100767.72;;;25.11;100.00
3142;BME280;1581;51.568;6.998;2022-08-19T09:24:05;100765.22;;;25.14;100.00
3142;BME280;1581;51.568;6.998;2022-08-19T09:26:33;100774.19;;;25.25;100.00
3142;BME280;1581;51.568;6.998;2022-08-19T09:29:03;100767.94;;;25.19;100.00
3142;BME280;1581;51.568;6.998;2022-08-19T09:31:32;100766.13;;;25.00;100.00
3142;BME280;1581;51.568;6.998;2022-08-19T09:34:00;100767.19;;;25.04;100.00
3142;BME280;1581;51.568;6.998;2022-08-19T09:36:32;100766.16;;;24.95;100.00
3142;BME280;1581;51.568;6.998;2022-08-19T09:39:03;100771.78;;;25.13;100.00
3142;BME280;1581;51.568;6.998;2022-08-19T09:41:31;100767.41;;;25.17;100.00
3142;BME280;1581;51.568;6.998;2022-08-19T09:43:59;100770.44;;;25.49;99.95
3142;BME280;1581;51.568;6.998;2022-08-19T09:46:29;100770.31;;;25.64;99.08
3142;BME280;1581;51.568;6.998;2022-08-19T09:48:59;100763.88;;;25.50;98.39
3142;BME280;1581;51.568;6.998;2022-08-19T09:51:28;100772.94;;;25.79;98.75
3142;BME280;1581;51.568;6.998;2022-08-19T09:54:00;100766.88;;;25.82;98.00
3142;BME280;1581;51.568;6.998;2022-08-19T09:56:29;100771.22;;;25.88;96.83
3142;BME280;1581;51.568;6.998;2022-08-19T09:58:58;100766.84;;;25.87;95.97
3142;BME280;1581;51.568;6.998;2022-08-19T10:01:31;100768.28;;;26.08;95.28
3142;BME280;1581;51.568;6.998;2022-08-19T10:04:50;100757.78;;;26.19;94.40
3142;BME280;1581;51.568;6.998;2022-08-19T10:07:38;100762.44;;;26.42;93.69
3142;BME280;1581;51.568;6.998;2022-08-19T10:10:07;100767.19;;;26.55;92.96
3142;BME280;1581;51.568;6.998;2022-08-19T10:12:37;100764.38;;;26.37;92.19
3142;BME280;1581;51.568;6.998;2022-08-19T10:15:11;100765.31;;;26.27;91.76
3142;BME280;1581;51.568;6.998;2022-08-19T10:17:40;100758.34;;;26.63;92.45
3142;BME280;1581;51.568;6.998;2022-08-19T10:20:09;100763.19;;;26.90;90.41
3142;BME280;1581;51.568;6.998;2022-08-19T10:22:37;100766.28;;;26.83;89.62
3142;BME280;1581;51.568;6.998;2022-08-19T10:25:15;100764.72;;;26.77;87.69
3142;BME280;1581;51.568;6.998;2022-08-19T10:28:03;100764.09;;;26.38;88.00
3142;BME280;1581;51.568;6.998;2022-08-19T10:30:32;100760.66;;;26.93;88.90
3142;BME280;1581;51.568;6.998;2022-08-19T10:33:01;100757.94;;;26.93;85.85
3142;BME280;1581;51.568;6.998;2022-08-19T10:35:35;100765.44;;;26.64;87.09
3142;BME280;1581;51.568;6.998;2022-08-19T10:38:04;100763.00;;;26.39;87.28
3142;BME280;1581;51.568;6.998;2022-08-19T10:40:33;100750.78;;;26.32;88.48
3142;BME280;1581;51.568;6.998;2022-08-19T10:43:00;100761.50;;;26.28;89.70
3142;BME280;1581;51.568;6.998;2022-08-19T10:45:28;100753.88;;;26.25;88.24
3142;BME280;1581;51.568;6.998;2022-08-19T10:48:00;100745.75;;;26.44;89.39
3142;BME280;1581;51.568;6.998;2022-08-19T10:50:28;100752.97;;;26.58;89.22
3142;BME280;1581;51.568;6.998;2022-08-19T10:53:13;100748.88;;;26.56;88.77
3142;BME280;1581;51.568;6.998;2022-08-19T10:55:40;100757.72;;;26.90;86.08
3142;BME280;1581;51.568;6.998;2022-08-19T10:58:25;100757.16;;;27.11;85.10
3142;BME280;1581;51.568;6.998;2022-08-19T11:00:54;100756.41;;;27.42;85.20
3142;BME280;1581;51.568;6.998;2022-08-19T11:03:25;100761.13;;;27.37;81.31
3142;BME280;1581;51.568;6.998;2022-08-19T11:06:00;100744.50;;;27.33;81.11
3142;BME280;1581;51.568;6.998;2022-08-19T11:08:28;100751.88;;;27.33;82.00
3142;BME280;1581;51.568;6.998;2022-08-19T11:11:00;100753.56;;;27.47;80.38
3142;BME280;1581;51.568;6.998;2022-08-19T11:13:30;100758.81;;;27.62;81.64
3142;BME280;1581;51.568;6.998;2022-08-19T11:16:02;100753.69;;;27.56;79.47
3142;BME280;1581;51.568;6.998;2022-08-19T11:18:31;100759.06;;;27.79;77.16
3142;BME280;1581;51.568;6.998;2022-08-19T11:21:07;100757.06;;;27.98;77.86
3142;BME280;1581;51.568;6.998;2022-08-19T11:23:34;100763.91;;;28.14;78.64
3142;BME280;1581;51.568;6.998;2022-08-19T11:26:02;100769.03;;;28.34;78.77
3142;BME280;1581;51.568;6.998;2022-08-19T11:28:30;100767.31;;;27.92;76.90
3142;BME280;1581;51.568;6.998;2022-08-19T11:30:57;100766.69;;;27.82;77.46
3142;BME280;1581;51.568;6.998;2022-08-19T11:33:25;100763.69;;;28.10;77.26
3142;BME280;1581;51.568;6.998;2022-08-19T11:35:56;100757.78;;;28.03;74.65
3142;BME280;1581;51.568;6.998;2022-08-19T11:38:24;100759.97;;;28.33;74.36
3142;BME280;1581;51.568;6.998;2022-08-19T11:40:56;100753.78;;;28.41;74.57
3142;BME280;1581;51.568;6.998;2022-08-19T11:43:31;100757.00;;;28.70;72.76
3142;BME280;1581;51.568;6.998;2022-08-19T11:45:58;100757.63;;;28.67;71.79
3142;BME280;1581;51.568;6.998;2022-08-19T11:48:26;100753.19;;;28.44;72.52
3142;BME280;1581;51.568;6.998;2022-08-19T11:50:55;100760.28;;;28.45;73.88
3142;BME280;1581;51.568;6.998;2022-08-19T11:53:23;100751.88;;;28.42;71.21
3142;BME280;1581;51.568;6.998;2022-08-19T11:55:53;100745.22;;;28.70;71.66
3142;BME280;1581;51.568;6.998;2022-08-19T11:58:22;100739.66;;;29.10;69.25
3142;BME280;1581;51.568;6.998;2022-08-19T12:00:51;100742.56;;;29.71;64.16
3142;BME280;1581;51.568;6.998;2022-08-19T12:03:19;100742.09;;;29.47;61.34
3142;BME280;1581;51.568;6.998;2022-08-19T12:05:47;100747.69;;;29.42;61.03
3142;BME280;1581;51.568;6.998;2022-08-19T12:08:16;100743.72;;;29.70;59.84
3142;BME280;1581;51.568;6.998;2022-08-19T12:10:44;100742.63;;;30.01;59.64
3142;BME280;1581;51.568;6.998;2022-08-19T12:13:13;100743.56;;;30.35;61.03
3142;BME280;1581;51.568;6.998;2022-08-19T12:15:46;100740.19;;;30.38;52.00
3142;BME280;1581;51.568;6.998;2022-08-19T12:18:14;100745.75;;;30.55;52.86
3142;BME280;1581;51.568;6.998;2022-08-19T12:20:43;100739.19;;;30.81;54.91
3142;BME280;1581;51.568;6.998;2022-08-19T12:23:12;100735.94;;;30.96;53.59
3142;BME280;1581;51.568;6.998;2022-08-19T12:25:48;100733.13;;;30.54;52.60
3142;BME280;1581;51.568;6.998;2022-08-19T12:28:18;100734.69;;;30.38;55.68
3142;BME280;1581;51.568;6.998;2022-08-19T12:30:46;100723.69;;;29.99;56.34
3142;BME280;1581;51.568;6.998;2022-08-19T12:33:14;100716.44;;;29.51;57.35
3142;BME280;1581;51.568;6.998;2022-08-19T12:35:42;100722.72;;;29.73;59.25
3142;BME280;1581;51.568;6.998;2022-08-19T12:38:13;100728.91;;;30.09;56.89
3142;BME280;1581;51.568;6.998;2022-08-19T12:40:41;100722.25;;;29.50;56.27
3142;BME280;1581;51.568;6.998;2022-08-19T12:43:14;100720.88;;;29.39;56.38
3142;BME280;1581;51.568;6.998;2022-08-19T12:45:43;100724.81;;;29.11;54.58
3142;BME280;1581;51.568;6.998;2022-08-19T12:48:11;100712.31;;;29.40;54.65
3142;BME280;1581;51.568;6.998;2022-08-19T12:50:40;100717.13;;;29.57;52.85
3142;BME280;1581;51.568;6.998;2022-08-19T12:53:07;100711.28;;;30.10;53.02
3142;BME280;1581;51.568;6.998;2022-08-19T12:55:35;100725.75;;;30.88;50.27
3142;BME280;1581;51.568;6.998;2022-08-19T12:58:02;100726.25;;;33.60;42.94
3142;BME280;1581;51.568;6.998;2022-08-19T13:00:33;100726.53;;;33.26;40.79
3142;BME280;1581;51.568;6.998;2022-08-19T13:03:01;100725.09;;;32.79;44.07
3142;BME280;1581;51.568;6.998;2022-08-19T13:05:32;100733.31;;;31.93;43.69
3142;BME280;1581;51.568;6.998;2022-08-19T13:08:01;100728.72;;;32.05;43.11
3142;BME280;1581;51.568;6.998;2022-08-19T13:10:32;100719.59;;;32.79;43.40
3142;BME280;1581;51.568;6.998;2022-08-19T13:13:02;100732.50;;;34.73;38.27
3142;BME280;1581;51.568;6.998;2022-08-19T13:15:34;100741.59;;;36.53;33.92
3142;BME280;1581;51.568;6.998;2022-08-19T13:18:02;100743.38;;;36.45;33.36
3142;BME280;1581;51.568;6.998;2022-08-19T13:20:30;100725.13;;;33.73;36.68